Time;durP1;ratioP1;P1;durP2;ratioP2;P2;SDS_P1;SDS_P2;PMS_P1;PMS_P2;Temp;Humidity;BMP_temperature;BMP_pressure;BME280_temperature;BME280_humidity;BME280_pressure;Samples;Min_cycle;Max_cycle;Signal;HPM_P1;HPM_P2
2023/01/30 00:01:27;;;;;;;43.20;26.80;;;5.30;99.90;;;;;;5075222;28;20180;-68
2023/01/30 00:03:52;;;;;;;47.63;27.37;;;5.40;99.90;;;;;;5074792;28;20620;-69
2023/01/30 00:06:19;;;;;;;43.60;24.87;;;5.40;99.90;;;;;;5075053;28;20221;-69
2023/01/30 00:08:44;;;;;;;45.30;26.33;;;5.30;99.90;;;;;;5074825;28;20289;-68
2023/01/30 00:11:12;;;;;;;41.13;26.87;;;5.30;99.90;;;;;;5074364;28;20219;-68
2023/01/30 00:13:38;;;;;;;48.63;26.83;;;5.30;99.90;;;;;;5074846;28;20176;-68
2023/01/30 00:16:05;;;;;;;40.60;26.00;;;5.40;99.90;;;;;;5074847;28;20168;-68
2023/01/30 00:18:31;;;;;;;42.97;25.50;;;5.40;99.90;;;;;;5074812;28;20175;-69
2023/01/30 00:21:01;;;;;;;44.60;26.80;;;5.40;99.90;;;;;;5074731;28;20181;-69
2023/01/30 00:23:28;;;;;;;47.07;27.63;;;5.40;99.90;;;;;;5075060;28;20168;-68
2023/01/30 00:25:54;;;;;;;39.33;23.63;;;5.30;99.90;;;;;;5074130;28;20643;-68
2023/01/30 00:28:20;;;;;;;44.10;26.93;;;5.30;99.90;;;;;;5074620;28;20299;-68
2023/01/30 00:30:52;;;;;;;46.40;26.77;;;5.30;99.90;;;;;;5074592;28;20195;-68
2023/01/30 00:33:19;;;;;;;45.50;26.00;;;5.30;99.90;;;;;;5074469;28;20222;-68
2023/01/30 00:35:46;;;;;;;45.47;27.07;;;5.30;99.90;;;;;;5074350;28;20532;-68
2023/01/30 00:38:12;;;;;;;43.73;26.33;;;5.40;99.90;;;;;;5074192;28;20228;-68
2023/01/30 00:40:38;;;;;;;45.33;28.60;;;5.40;99.90;;;;;;5074015;28;20204;-68
2023/01/30 00:48:35;;;;;;;43.23;26.57;;;5.40;99.90;;;;;;5074242;28;20239;-68
2023/01/30 00:51:01;;;;;;;41.80;25.67;;;5.40;99.90;;;;;;5055972;28;20620;-68
2023/01/30 00:53:26;;;;;;;38.50;24.00;;;5.40;99.90;;;;;;5074004;28;20238;-68
2023/01/30 00:55:53;;;;;;;40.80;24.93;;;5.50;99.90;;;;;;5073731;28;20594;-68
2023/01/30 00:58:20;;;;;;;44.40;24.83;;;5.50;99.90;;;;;;5074009;28;20224;-68
2023/01/30 01:00:46;;;;;;;44.80;26.57;;;5.50;99.90;;;;;;5073989;28;20176;-68
2023/01/30 01:03:11;;;;;;;43.33;25.77;;;5.50;99.90;;;;;;5073660;28;20697;-68
2023/01/30 01:05:37;;;;;;;42.40;25.17;;;5.60;99.90;;;;;;5073793;28;20172;-68
2023/01/30 01:08:03;;;;;;;42.27;24.63;;;5.60;99.90;;;;;;5055735;28;20659;-68
2023/01/30 01:10:29;;;;;;;41.43;24.97;;;5.60;99.90;;;;;;5073444;28;20181;-67
2023/01/30 01:12:55;;;;;;;39.33;24.40;;;5.70;99.90;;;;;;5073531;28;20180;-68
2023/01/30 01:15:22;;;;;;;37.70;22.57;;;5.70;99.90;;;;;;5073046;28;20181;-68
2023/01/30 01:17:48;;;;;;;44.67;25.30;;;5.70;99.90;;;;;;5073517;28;20262;-68
2023/01/30 01:20:14;;;;;;;38.27;23.80;;;5.70;99.90;;;;;;5073671;28;20177;-68
2023/01/30 01:22:40;;;;;;;38.43;25.40;;;5.70;99.90;;;;;;5073728;28;20180;-68
2023/01/30 01:25:06;;;;;;;36.97;24.47;;;5.80;99.90;;;;;;5073568;28;20519;-68
2023/01/30 01:27:31;;;;;;;34.50;23.80;;;5.80;99.90;;;;;;5073369;28;20514;-67
2023/01/30 01:29:57;;;;;;;36.50;23.40;;;5.80;99.90;;;;;;5073482;28;20270;-68
2023/01/30 01:32:23;;;;;;;35.57;22.97;;;5.80;99.90;;;;;;5073316;28;20172;-68
2023/01/30 01:34:48;;;;;;;35.90;23.83;;;5.90;99.90;;;;;;5073358;28;20215;-68
2023/01/30 01:37:14;;;;;;;36.03;23.47;;;5.90;99.90;;;;;;5073362;28;20652;-69
2023/01/30 01:42:27;;;;;;;40.67;25.23;;;5.90;99.90;;;;;;5073869;28;20290;-67
2023/01/30 01:45:23;;;;;;;46.70;28.30;;;6.00;99.90;;;;;;5073373;28;20169;-68
2023/01/30 01:48:00;;;;;;;45.60;26.83;;;6.00;99.90;;;;;;5073106;28;20204;-67
2023/01/30 01:50:35;;;;;;;34.93;24.23;;;6.00;99.90;;;;;;5073330;28;20176;-69
2023/01/30 01:53:01;;;;;;;38.70;24.87;;;5.90;99.90;;;;;;5072738;28;20687;-69
2023/01/30 01:55:28;;;;;;;36.03;23.57;;;6.00;99.90;;;;;;5073081;28;20222;-69
2023/01/30 01:57:57;;;;;;;37.13;22.13;;;6.00;99.90;;;;;;5073342;28;20676;-69
2023/01/30 02:00:24;;;;;;;33.40;22.77;;;6.10;99.90;;;;;;5073039;28;20190;-69
2023/01/30 02:03:14;;;;;;;33.37;22.17;;;6.10;99.90;;;;;;5073200;28;20172;-68
2023/01/30 02:05:47;;;;;;;36.57;22.10;;;6.10;99.90;;;;;;5055152;28;20165;-68
2023/01/30 02:08:20;;;;;;;33.73;23.23;;;6.10;99.90;;;;;;5072614;28;20672;-69
2023/01/30 02:11:10;;;;;;;34.17;22.00;;;6.20;99.90;;;;;;5073020;28;20173;-68
2023/01/30 02:13:36;;;;;;;36.60;23.57;;;6.20;99.90;;;;;;5073107;28;20218;-68
2023/01/30 02:16:05;;;;;;;36.77;22.33;;;6.20;99.90;;;;;;5072996;28;20172;-67
2023/01/30 02:18:33;;;;;;;36.43;23.17;;;6.20;99.90;;;;;;5072792;28;20199;-67
2023/01/30 02:21:35;;;;;;;35.47;21.37;;;6.20;99.90;;;;;;5072898;28;20176;-67
2023/01/30 02:24:07;;;;;;;35.13;21.07;;;6.30;99.90;;;;;;5072990;28;20267;-68
2023/01/30 02:27:08;;;;;;;36.97;22.13;;;6.20;99.90;;;;;;5073057;28;20179;-68
2023/01/30 02:29:52;;;;;;;35.30;21.73;;;6.30;99.90;;;;;;5076907;28;20216;-67
2023/01/30 02:32:42;;;;;;;32.00;20.33;;;6.20;99.90;;;;;;5076847;28;20165;-67
2023/01/30 02:35:41;;;;;;;34.30;21.53;;;6.20;99.90;;;;;;5076874;28;20183;-67
2023/01/30 02:38:27;;;;;;;32.23;20.70;;;6.30;99.90;;;;;;5076323;28;20224;-67
2023/01/30 02:41:03;;;;;;;31.40;20.20;;;6.30;99.90;;;;;;5076719;28;20164;-67
2023/01/30 02:44:01;;;;;;;33.90;20.73;;;6.30;99.90;;;;;;5076771;28;20677;-67
2023/01/30 02:46:45;;;;;;;33.63;20.37;;;6.40;99.90;;;;;;5076564;28;20171;-68
2023/01/30 02:49:35;;;;;;;31.87;21.17;;;6.30;99.90;;;;;;5076550;28;20220;-68
2023/01/30 02:52:02;;;;;;;37.53;20.77;;;6.40;99.90;;;;;;5075836;28;20671;-69
2023/01/30 02:54:27;;;;;;;31.20;20.10;;;6.40;99.90;;;;;;5076417;28;20180;-67
2023/01/30 02:56:57;;;;;;;32.10;19.67;;;6.30;99.90;;;;;;5076588;28;20245;-67
2023/01/30 02:59:36;;;;;;;32.80;20.10;;;6.40;99.90;;;;;;5076355;28;20183;-67
2023/01/30 03:02:12;;;;;;;31.13;19.03;;;6.40;99.90;;;;;;5076084;28;20527;-68
2023/01/30 03:04:53;;;;;;;30.47;18.77;;;6.50;99.90;;;;;;5058371;28;20176;-68
2023/01/30 03:07:24;;;;;;;29.50;19.53;;;6.50;99.90;;;;;;5076239;28;20520;-68
2023/01/30 03:09:56;;;;;;;30.47;18.80;;;6.50;99.90;;;;;;5076045;28;20212;-68
2023/01/30 03:12:47;;;;;;;30.03;19.53;;;6.60;99.90;;;;;;5076041;28;20176;-69
2023/01/30 03:15:18;;;;;;;32.43;19.70;;;6.60;99.90;;;;;;5076141;28;20169;-68
2023/01/30 03:17:46;;;;;;;28.60;18.13;;;6.60;99.90;;;;;;5076094;28;20187;-69
2023/01/30 03:20:13;;;;;;;29.67;19.40;;;6.70;99.90;;;;;;5075813;28;20173;-69
2023/01/30 03:22:38;;;;;;;28.97;18.57;;;6.70;99.90;;;;;;5075916;28;20639;-68
2023/01/30 03:25:05;;;;;;;29.57;18.73;;;6.70;99.90;;;;;;5076066;28;20176;-68
2023/01/30 03:27:33;;;;;;;29.47;18.33;;;6.80;99.90;;;;;;5075724;28;20644;-68
2023/01/30 03:29:58;;;;;;;27.40;18.17;;;6.80;99.90;;;;;;5076032;28;20184;-68
2023/01/30 03:32:24;;;;;;;29.43;17.87;;;6.80;99.90;;;;;;5076044;28;20179;-68
2023/01/30 03:34:49;;;;;;;26.73;17.43;;;6.80;99.90;;;;;;5075661;28;20694;-69
2023/01/30 03:37:15;;;;;;;26.10;17.70;;;6.90;99.90;;;;;;5075625;28;20256;-69
2023/01/30 03:39:41;;;;;;;27.27;17.73;;;7.00;99.90;;;;;;5074633;28;20176;-69
2023/01/30 03:42:06;;;;;;;29.83;16.67;;;7.00;99.90;;;;;;5075492;28;20237;-69
2023/01/30 03:44:32;;;;;;;25.83;16.03;;;7.10;99.90;;;;;;5075644;28;20183;-69
2023/01/30 03:46:58;;;;;;;26.60;16.77;;;7.10;99.90;;;;;;5075527;28;20162;-68
2023/01/30 03:49:23;;;;;;;26.77;16.23;;;7.00;99.90;;;;;;5074875;28;20262;-68
2023/01/30 03:51:49;;;;;;;25.70;16.87;;;7.10;99.90;;;;;;5075304;28;20176;-68
2023/01/30 03:54:14;;;;;;;26.93;16.20;;;7.00;99.90;;;;;;5074925;28;20216;-68
2023/01/30 03:56:40;;;;;;;25.90;16.30;;;7.10;99.90;;;;;;5075717;28;20685;-68
2023/01/30 03:59:06;;;;;;;24.13;15.23;;;7.10;99.90;;;;;;5075209;28;20180;-69
2023/01/30 04:01:31;;;;;;;22.80;15.07;;;7.10;99.90;;;;;;5057100;28;20521;-68
2023/01/30 04:03:57;;;;;;;26.33;15.20;;;7.10;99.90;;;;;;5074665;28;20310;-68
2023/01/30 04:06:22;;;;;;;23.87;14.87;;;7.10;99.90;;;;;;5074996;28;20168;-68
2023/01/30 04:08:52;;;;;;;29.97;16.83;;;7.10;99.90;;;;;;5074737;28;20258;-68
2023/01/30 04:11:17;;;;;;;31.27;16.87;;;7.00;99.90;;;;;;5074868;28;20648;-68
2023/01/30 04:13:43;;;;;;;27.77;16.30;;;7.00;99.90;;;;;;5075000;28;20172;-69
2023/01/30 04:16:25;;;;;;;23.93;15.77;;;7.00;99.90;;;;;;5074695;28;20171;-68
2023/01/30 04:18:51;;;;;;;21.90;15.93;;;7.00;99.90;;;;;;5074472;28;20172;-69
2023/01/30 04:21:17;;;;;;;27.17;15.37;;;7.00;99.90;;;;;;5074545;28;20172;-68
2023/01/30 04:23:43;;;;;;;23.50;15.63;;;6.90;99.90;;;;;;5074648;28;20180;-70
2023/01/30 04:26:09;;;;;;;26.43;17.00;;;7.00;99.90;;;;;;5056602;28;20180;-70
2023/01/30 04:28:34;;;;;;;27.03;15.43;;;7.00;99.90;;;;;;5074470;28;20207;-70
2023/01/30 04:31:00;;;;;;;23.73;15.97;;;7.00;99.90;;;;;;5074690;28;20169;-69
2023/01/30 04:33:26;;;;;;;30.20;16.17;;;7.00;99.90;;;;;;5074351;28;20177;-71
2023/01/30 04:35:57;;;;;;;30.40;15.53;;;7.00;99.90;;;;;;5074325;28;20606;-71
2023/01/30 04:38:24;;;;;;;27.23;15.47;;;6.90;99.90;;;;;;5074187;28;20194;-71
2023/01/30 04:40:51;;;;;;;22.40;15.13;;;7.00;99.90;;;;;;5074211;28;20199;-71
2023/01/30 04:43:17;;;;;;;21.87;14.90;;;7.00;99.90;;;;;;5056659;28;20177;-71
2023/01/30 04:45:45;;;;;;;24.10;14.77;;;7.00;99.90;;;;;;5073998;28;20188;-70
2023/01/30 04:48:11;;;;;;;28.47;15.93;;;7.00;99.90;;;;;;5073527;28;20238;-70
2023/01/30 04:50:37;;;;;;;25.23;15.23;;;7.00;99.90;;;;;;5073172;28;20168;-71
2023/01/30 04:53:02;;;;;;;26.47;15.83;;;7.00;99.90;;;;;;5073812;28;20259;-70
2023/01/30 04:55:28;;;;;;;24.83;14.77;;;7.10;99.90;;;;;;5074023;28;20616;-70
2023/01/30 04:57:54;;;;;;;24.97;15.67;;;7.00;99.90;;;;;;5074027;28;20175;-71
2023/01/30 05:00:20;;;;;;;23.27;14.40;;;7.00;99.90;;;;;;5073958;28;20180;-71
2023/01/30 05:02:45;;;;;;;21.33;14.77;;;7.00;99.90;;;;;;5073320;28;20161;-71
2023/01/30 05:05:11;;;;;;;21.97;14.70;;;7.10;99.90;;;;;;5073731;28;20192;-71
2023/01/30 05:07:36;;;;;;;24.67;14.83;;;7.10;99.90;;;;;;5073771;28;20238;-70
2023/01/30 05:10:02;;;;;;;23.97;14.97;;;7.10;99.90;;;;;;5073648;28;20271;-72
2023/01/30 05:12:29;;;;;;;23.60;14.70;;;7.10;99.90;;;;;;5073588;28;20196;-70
2023/01/30 05:14:55;;;;;;;21.90;14.13;;;7.10;99.90;;;;;;5073781;28;20515;-70
2023/01/30 05:17:21;;;;;;;22.90;14.30;;;7.10;99.90;;;;;;5073132;28;20172;-71
2023/01/30 05:19:47;;;;;;;19.63;13.90;;;7.20;99.90;;;;;;5073424;28;20169;-71
2023/01/30 05:22:12;;;;;;;22.87;13.80;;;7.20;99.90;;;;;;5073411;28;20169;-71
2023/01/30 05:24:38;;;;;;;19.57;13.40;;;7.20;99.90;;;;;;5073552;28;20197;-71
2023/01/30 05:27:04;;;;;;;21.53;13.93;;;7.10;99.90;;;;;;5073468;28;20173;-70
2023/01/30 05:29:29;;;;;;;18.43;13.27;;;7.20;99.90;;;;;;5073456;28;20263;-71
2023/01/30 05:31:55;;;;;;;22.07;13.67;;;7.20;99.90;;;;;;5072789;28;20179;-69
2023/01/30 05:34:21;;;;;;;17.80;13.13;;;7.20;99.90;;;;;;5073220;28;20362;-70
2023/01/30 05:36:46;;;;;;;20.07;12.60;;;7.30;99.90;;;;;;5072977;28;20200;-70
2023/01/30 05:39:12;;;;;;;20.97;12.63;;;7.30;99.90;;;;;;5072927;28;20719;-70
2023/01/30 05:41:38;;;;;;;15.33;12.13;;;7.30;99.90;;;;;;5073236;28;20181;-70
2023/01/30 05:44:04;;;;;;;17.60;12.53;;;7.30;99.90;;;;;;5073064;28;20176;-70
2023/01/30 05:46:29;;;;;;;16.53;11.83;;;7.40;99.90;;;;;;5073077;28;20165;-70
2023/01/30 05:48:55;;;;;;;19.00;11.53;;;7.30;99.90;;;;;;5073116;28;20204;-70
2023/01/30 05:51:23;;;;;;;17.97;11.90;;;7.30;99.90;;;;;;5072968;28;20683;-70
2023/01/30 05:53:48;;;;;;;14.93;11.07;;;7.40;99.90;;;;;;5072701;28;20212;-70
2023/01/30 05:56:14;;;;;;;17.30;11.60;;;7.50;99.90;;;;;;5073260;28;20165;-70
2023/01/30 05:58:40;;;;;;;16.77;10.70;;;7.60;99.90;;;;;;5072767;28;20172;-70
2023/01/30 06:01:09;;;;;;;16.30;11.00;;;7.50;99.90;;;;;;5072361;28;20287;-70
2023/01/30 06:03:35;;;;;;;17.23;11.07;;;7.50;99.90;;;;;;5072602;28;20271;-70
2023/01/30 06:06:02;;;;;;;16.97;10.93;;;7.50;99.90;;;;;;5072663;28;20212;-70
2023/01/30 06:08:28;;;;;;;14.13;9.70;;;7.50;99.90;;;;;;5072922;28;20223;-70
2023/01/30 06:10:54;;;;;;;13.00;9.50;;;7.60;99.90;;;;;;5072747;28;20168;-69
2023/01/30 06:13:19;;;;;;;13.77;9.20;;;7.60;99.90;;;;;;5072544;28;20187;-69
2023/01/30 06:15:45;;;;;;;12.93;9.30;;;7.70;99.90;;;;;;5072754;28;20251;-70
2023/01/30 06:18:11;;;;;;;13.30;8.90;;;7.70;99.90;;;;;;5072982;28;20176;-70
2023/01/30 06:20:36;;;;;;;12.70;8.70;;;7.60;99.90;;;;;;5072777;28;20539;-71
2023/01/30 06:23:02;;;;;;;13.70;9.00;;;7.60;99.90;;;;;;5072487;28;20488;-70
2023/01/30 06:25:27;;;;;;;13.90;9.07;;;7.70;99.90;;;;;;5072714;28;20187;-71
2023/01/30 06:27:53;;;;;;;13.13;8.30;;;7.70;99.90;;;;;;5072481;28;20259;-71
2023/01/30 06:30:19;;;;;;;16.33;8.20;;;7.70;99.90;;;;;;5072253;28;20647;-71
2023/01/30 06:32:48;;;;;;;13.90;8.73;;;7.70;99.90;;;;;;5072476;28;20172;-71
2023/01/30 06:35:14;;;;;;;14.97;8.20;;;7.80;99.90;;;;;;5071898;28;20737;-71
2023/01/30 06:37:39;;;;;;;12.03;8.10;;;7.80;99.90;;;;;;5072249;28;20291;-70
2023/01/30 06:40:05;;;;;;;17.40;7.97;;;7.80;99.90;;;;;;5072554;28;20169;-70
2023/01/30 06:42:31;;;;;;;10.50;7.77;;;7.70;99.90;;;;;;5072027;28;20195;-71
2023/01/30 06:44:57;;;;;;;11.00;8.10;;;7.80;99.90;;;;;;5072105;28;20648;-72
2023/01/30 06:47:22;;;;;;;11.90;8.27;;;7.80;99.90;;;;;;5072166;28;20181;-71
2023/01/30 06:49:48;;;;;;;13.97;7.53;;;7.80;99.90;;;;;;5071844;28;20213;-71
2023/01/30 06:52:13;;;;;;;12.07;7.70;;;7.80;99.90;;;;;;5071976;28;20278;-71
2023/01/30 06:54:39;;;;;;;12.43;7.90;;;7.80;99.90;;;;;;5071835;28;20181;-71
2023/01/30 06:57:05;;;;;;;13.80;8.13;;;7.90;99.90;;;;;;5071585;28;20608;-70
2023/01/30 06:59:30;;;;;;;15.27;8.13;;;7.90;99.90;;;;;;5053728;28;20173;-70
2023/01/30 07:01:56;;;;;;;14.13;8.80;;;7.80;99.90;;;;;;5071750;28;20173;-71
2023/01/30 07:04:21;;;;;;;12.10;8.13;;;7.90;99.90;;;;;;5071584;28;20177;-70
2023/01/30 07:06:47;;;;;;;18.83;8.50;;;7.90;99.90;;;;;;5071492;28;20279;-71
2023/01/30 07:09:13;;;;;;;18.67;8.10;;;7.90;99.90;;;;;;5071094;28;20277;-71
2023/01/30 07:11:38;;;;;;;14.43;8.40;;;7.90;99.90;;;;;;5053342;28;20208;-71
2023/01/30 07:14:04;;;;;;;16.70;8.10;;;8.00;99.90;;;;;;5072550;28;20176;-71
2023/01/30 07:16:29;;;;;;;19.60;8.17;;;8.00;99.90;;;;;;5074846;28;20497;-71
2023/01/30 07:18:58;;;;;;;17.00;8.30;;;8.10;99.90;;;;;;5075298;28;20173;-71
2023/01/30 07:21:24;;;;;;;13.43;7.47;;;8.10;99.90;;;;;;5074760;28;20169;-71
2023/01/30 07:23:50;;;;;;;13.30;8.37;;;8.00;99.90;;;;;;5074396;28;20172;-71
2023/01/30 07:26:15;;;;;;;15.67;8.07;;;8.00;99.90;;;;;;5074351;28;20271;-71
2023/01/30 07:28:41;;;;;;;15.63;8.43;;;8.00;99.90;;;;;;5072041;28;20634;-71
2023/01/30 07:31:06;;;;;;;12.03;7.13;;;8.10;99.90;;;;;;5053768;28;20180;-72
2023/01/30 07:33:32;;;;;;;13.47;7.27;;;8.10;99.90;;;;;;5054175;28;20274;-70
2023/01/30 07:35:58;;;;;;;12.80;7.13;;;8.10;99.90;;;;;;5055158;28;20505;-71
2023/01/30 07:38:23;;;;;;;14.40;7.60;;;8.10;99.90;;;;;;5054613;28;20226;-70
2023/01/30 07:40:49;;;;;;;16.47;6.70;;;8.10;99.90;;;;;;5036315;28;20184;-70
2023/01/30 07:43:14;;;;;;;11.87;6.63;;;8.10;99.90;;;;;;5054798;28;20177;-70
2023/01/30 07:45:45;;;;;;;17.40;7.00;;;8.10;99.90;;;;;;5054637;28;20169;-71
2023/01/30 07:48:13;;;;;;;12.37;6.80;;;8.10;99.90;;;;;;5054663;28;20220;-71
2023/01/30 07:50:39;;;;;;;14.43;6.03;;;8.10;99.90;;;;;;5054736;28;20165;-72
2023/01/30 07:53:06;;;;;;;14.83;6.40;;;8.20;99.90;;;;;;5054103;28;20319;-71
2023/01/30 07:55:32;;;;;;;11.57;6.27;;;8.20;99.90;;;;;;5035940;28;20238;-71
2023/01/30 07:57:58;;;;;;;10.43;5.90;;;8.20;99.90;;;;;;5054167;28;20174;-71
2023/01/30 08:00:24;;;;;;;8.60;5.13;;;8.20;99.90;;;;;;5054208;28;20173;-71
2023/01/30 08:02:49;;;;;;;14.80;5.20;;;8.20;99.90;;;;;;5054140;28;20173;-71
2023/01/30 08:05:15;;;;;;;10.27;4.90;;;8.30;99.90;;;;;;5064529;28;20188;-71
2023/01/30 08:07:41;;;;;;;11.70;5.27;;;8.50;99.90;;;;;;5074003;28;20165;-72
2023/01/30 08:10:07;;;;;;;10.03;4.90;;;8.70;99.90;;;;;;5073111;28;20176;-71
2023/01/30 08:12:33;;;;;;;12.27;5.30;;;8.90;99.90;;;;;;5073972;28;20171;-71
2023/01/30 08:14:58;;;;;;;9.23;4.73;;;8.80;99.90;;;;;;5073634;28;20168;-71
2023/01/30 08:17:24;;;;;;;11.97;5.13;;;8.70;93.30;;;;;;5074100;28;20570;-71
2023/01/30 08:19:50;;;;;;;8.57;5.03;;;8.70;95.60;;;;;;5073755;28;20169;-71
2023/01/30 08:22:16;;;;;;;14.93;5.00;;;8.70;94.80;;;;;;5074246;28;20252;-72
2023/01/30 08:24:41;;;;;;;12.83;4.27;;;8.60;97.10;;;;;;5073371;28;20180;-72
2023/01/30 08:27:07;;;;;;;15.53;4.73;;;8.50;94.40;;;;;;5073977;28;20180;-71
2023/01/30 08:29:33;;;;;;;12.20;5.00;;;8.50;95.60;;;;;;5073905;28;20219;-71
2023/01/30 08:31:59;;;;;;;9.53;3.97;;;8.50;92.60;;;;;;5074272;28;20177;-71
2023/01/30 08:34:25;;;;;;;10.13;4.43;;;8.50;88.50;;;;;;5065353;28;20177;-72
2023/01/30 08:36:51;;;;;;;12.43;4.60;;;8.50;87.00;;;;;;5053834;28;20251;-72
2023/01/30 08:39:17;;;;;;;9.90;4.43;;;8.60;86.20;;;;;;5039827;28;20184;-73
2023/01/30 08:41:42;;;;;;;9.27;3.90;;;8.70;75.30;;;;;;5057943;28;20256;-72
2023/01/30 08:44:09;;;;;;;12.00;3.23;;;8.90;59.70;;;;;;5064962;28;20180;-71
2023/01/30 08:46:35;;;;;;;11.17;3.63;;;9.40;47.40;;;;;;5056366;28;20219;-73
2023/01/30 08:49:00;;;;;;;10.67;3.30;;;10.10;25.10;;;;;;5069395;28;20703;-70
2023/01/30 08:51:26;;;;;;;9.17;3.63;;;11.00;1.00;;;;;;5058567;28;20169;-73
2023/01/30 08:53:51;;;;;;;5.87;2.93;;;12.20;1.00;;;;;;5063263;28;20217;-72
2023/01/30 08:56:17;;;;;;;9.90;3.30;;;13.40;1.00;;;;;;5047209;28;20185;-73
2023/01/30 08:58:44;;;;;;;6.70;3.00;;;14.00;99.90;;;;;;5056126;28;20717;-73
2023/01/30 09:01:10;;;;;;;6.53;2.77;;;14.80;99.90;;;;;;5054615;28;20651;-73
2023/01/30 09:03:35;;;;;;;8.03;3.00;;;14.90;99.50;;;;;;5065653;28;20173;-73
2023/01/30 09:06:01;;;;;;;8.47;2.93;;;15.20;98.70;;;;;;5063258;28;20176;-73
2023/01/30 09:08:27;;;;;;;8.23;2.73;;;15.10;98.50;;;;;;5058139;28;20286;-73
2023/01/30 09:10:57;;;;;;;4.57;2.78;;;15.40;97.20;;;;;;5035597;28;20359;-73
2023/01/30 09:13:23;;;;;;;8.60;3.08;;;15.40;96.80;;;;;;5067523;28;20177;-73
2023/01/30 09:15:48;;;;;;;8.35;2.85;;;15.80;95.70;;;;;;5063322;28;20226;-72
2023/01/30 09:18:14;;;;;;;5.15;2.30;;;15.50;96.00;;;;;;5061605;28;20645;-74
2023/01/30 09:20:40;;;;;;;6.85;2.67;;;16.00;95.00;;;;;;5066828;28;20231;-74
2023/01/30 09:23:05;;;;;;;12.43;2.90;;;16.00;93.80;;;;;;5072264;28;20179;-73
2023/01/30 09:25:31;;;;;;;9.35;3.42;;;15.90;94.60;;;;;;5081791;28;20168;-72
2023/01/30 09:27:56;;;;;;;6.05;2.45;;;16.00;94.50;;;;;;5062396;28;20215;-74
2023/01/30 09:30:23;;;;;;;7.97;2.85;;;16.40;93.30;;;;;;5065145;28;20530;-74
2023/01/30 09:32:49;;;;;;;6.05;2.83;;;17.20;91.50;;;;;;5054527;28;20170;-72
2023/01/30 09:35:14;;;;;;;9.73;2.58;;;16.60;91.00;;;;;;5056349;28;20524;-74
2023/01/30 09:37:51;;;;;;;10.23;3.03;;;17.00;89.80;;;;;;5071743;28;20602;-74
2023/01/30 09:40:22;;;;;;;10.93;3.15;;;16.50;90.10;;;;;;5041033;28;20203;-73
2023/01/30 09:43:13;;;;;;;8.70;3.15;;;16.20;92.10;;;;;;5059912;28;20177;-73
2023/01/30 09:45:42;;;;;;;7.93;3.17;;;15.90;91.20;;;;;;5067699;28;20188;-73
2023/01/30 09:48:34;;;;;;;7.40;3.10;;;16.30;91.00;;;;;;5068347;28;20239;-72
2023/01/30 09:51:09;;;;;;;9.43;2.70;;;16.60;89.60;;;;;;5056753;28;20196;-72
2023/01/30 09:54:10;;;;;;;9.82;3.15;;;17.10;87.60;;;;;;5074641;28;20731;-73
2023/01/30 09:56:36;;;;;;;7.53;2.97;;;16.30;99.90;;;;;;5076720;28;20165;-74
2023/01/30 09:59:03;;;;;;;6.07;2.58;;;16.40;1.00;;;;;;5055098;28;20663;-74
2023/01/30 10:01:52;;;;;;;8.80;3.05;;;15.80;99.90;;;;;;5070014;28;20173;-73
2023/01/30 10:04:27;;;;;;;8.90;2.85;;;15.40;92.20;;;;;;5071858;28;20177;-73
2023/01/30 10:07:43;;;;;;;10.65;3.08;;;15.90;91.00;;;;;;5054481;28;20165;-73
2023/01/30 10:10:46;;;;;;;8.77;2.83;;;16.10;89.00;;;;;;5007174;28;20616;-72
2023/01/30 10:13:24;;;;;;;6.57;2.67;;;15.50;90.40;;;;;;5034076;28;20219;-74
2023/01/30 10:16:08;;;;;;;9.18;2.83;;;14.60;92.20;;;;;;5067531;28;20239;-74
2023/01/30 10:19:01;;;;;;;10.73;3.00;;;13.40;94.80;;;;;;5055233;28;20269;-72
2023/01/30 10:21:38;;;;;;;10.13;3.27;;;13.00;96.60;;;;;;5056721;28;20185;-73
2023/01/30 10:24:30;;;;;;;10.53;3.33;;;12.60;98.40;;;;;;5056742;28;20173;-72
2023/01/30 10:26:56;;;;;;;11.10;3.10;;;12.70;98.20;;;;;;5068061;28;20176;-73
2023/01/30 10:29:37;;;;;;;9.00;2.70;;;12.80;98.60;;;;;;5056543;28;20576;-72
2023/01/30 10:32:30;;;;;;;13.23;3.40;;;13.20;98.40;;;;;;5060399;28;20209;-73
2023/01/30 10:35:05;;;;;;;9.13;2.90;;;14.20;96.30;;;;;;5069379;28;20161;-74
2023/01/30 10:37:55;;;;;;;7.97;2.97;;;14.70;94.10;;;;;;5072025;28;20933;-73
2023/01/30 10:40:39;;;;;;;14.73;4.43;;;14.60;94.20;;;;;;5058098;28;20238;-73
2023/01/30 10:43:18;;;;;;;14.68;3.10;;;15.30;93.00;;;;;;5071206;28;20173;-74
2023/01/30 10:46:09;;;;;;;11.30;2.78;;;15.30;92.50;;;;;;5071666;28;20176;-73
2023/01/30 10:49:00;;;;;;;7.95;2.97;;;15.50;91.50;;;;;;5073703;28;20554;-72
2023/01/30 10:51:51;;;;;;;10.90;3.17;;;15.20;92.20;;;;;;5075632;28;20177;-72
2023/01/30 10:54:27;;;;;;;8.40;3.10;;;14.80;92.80;;;;;;5044405;28;20224;-71
2023/01/30 10:57:20;;;;;;;11.13;3.00;;;14.80;93.30;;;;;;5075626;28;20647;-72
2023/01/30 10:59:53;;;;;;;9.13;3.83;;;14.30;93.20;;;;;;5075728;28;20188;-73
2023/01/30 11:02:37;;;;;;;13.20;2.97;;;14.00;94.20;;;;;;5073775;28;20172;-73
2023/01/30 11:05:14;;;;;;;12.57;3.13;;;13.60;94.60;;;;;;5074839;28;20268;-73
2023/01/30 11:07:42;;;;;;;13.77;3.00;;;13.40;95.10;;;;;;5075204;28;20650;-72
2023/01/30 11:10:20;;;;;;;10.87;3.10;;;13.10;96.10;;;;;;5075418;28;20239;-72
2023/01/30 11:12:47;;;;;;;10.63;2.80;;;12.70;95.70;;;;;;5075374;28;20279;-71
2023/01/30 11:15:13;;;;;;;15.07;3.43;;;12.50;97.10;;;;;;5075667;28;20165;-71
2023/01/30 11:17:40;;;;;;;13.90;3.17;;;12.50;97.50;;;;;;5075385;28;20612;-71
2023/01/30 11:20:17;;;;;;;8.20;3.30;;;12.30;97.80;;;;;;5073861;28;20552;-71
2023/01/30 11:23:02;;;;;;;8.97;3.37;;;11.90;98.70;;;;;;5073592;28;20176;-71
2023/01/30 11:25:28;;;;;;;14.37;3.47;;;11.80;99.20;;;;;;5073606;28;20172;-71
2023/01/30 11:27:55;;;;;;;10.43;2.70;;;11.40;99.40;;;;;;5055381;28;20692;-71
2023/01/30 11:30:25;;;;;;;11.73;3.13;;;11.10;99.90;;;;;;5054940;28;20201;-71
2023/01/30 11:33:11;;;;;;;12.97;3.40;;;10.90;99.90;;;;;;5054925;28;20162;-71
2023/01/30 11:36:04;;;;;;;12.33;2.87;;;10.80;99.90;;;;;;5054069;28;20192;-71
2023/01/30 11:38:34;;;;;;;11.57;3.20;;;10.80;99.90;;;;;;5051484;28;20637;-70
2023/01/30 11:41:21;;;;;;;15.00;3.57;;;10.90;99.90;;;;;;5055026;28;20655;-71
2023/01/30 11:43:47;;;;;;;11.77;3.77;;;10.80;99.90;;;;;;5054511;28;20174;-71
2023/01/30 11:46:18;;;;;;;9.90;2.90;;;10.50;99.90;;;;;;5055085;28;20201;-71
2023/01/30 11:48:54;;;;;;;13.77;3.13;;;10.50;99.90;;;;;;5054434;28;20228;-71
2023/01/30 11:51:22;;;;;;;12.60;4.50;;;10.50;99.90;;;;;;5062168;28;20326;-70
2023/01/30 11:54:04;;;;;;;11.73;3.70;;;10.60;99.90;;;;;;5055178;28;20239;-70
2023/01/30 11:56:33;;;;;;;13.20;3.30;;;10.60;99.90;;;;;;5061849;28;20233;-70
2023/01/30 11:59:06;;;;;;;9.83;3.43;;;10.60;99.90;;;;;;5060058;28;20196;-70
2023/01/30 12:01:35;;;;;;;13.17;3.43;;;10.60;99.90;;;;;;5065580;28;20697;-70
2023/01/30 12:04:06;;;;;;;16.57;3.83;;;10.60;99.90;;;;;;5054660;28;20270;-70
2023/01/30 12:06:38;;;;;;;12.47;4.20;;;10.70;99.90;;;;;;5054604;28;20165;-70
2023/01/30 12:09:05;;;;;;;14.27;4.13;;;10.70;99.90;;;;;;5054038;28;20208;-70
2023/01/30 12:11:43;;;;;;;10.50;3.53;;;10.80;99.90;;;;;;5054313;28;20165;-70
2023/01/30 12:14:30;;;;;;;15.03;3.70;;;10.80;99.90;;;;;;5054078;28;20169;-70
2023/01/30 12:16:59;;;;;;;12.67;3.23;;;10.50;99.90;;;;;;5053865;28;20177;-69
2023/01/30 12:19:49;;;;;;;9.30;3.23;;;10.40;99.90;;;;;;5053343;28;20180;-70
2023/01/30 12:22:21;;;;;;;16.17;3.73;;;10.30;99.90;;;;;;5053420;28;20173;-70
2023/01/30 12:24:58;;;;;;;16.03;3.90;;;10.40;99.90;;;;;;5053574;28;20169;-71
2023/01/30 12:27:47;;;;;;;12.03;3.50;;;10.20;99.90;;;;;;5069037;28;20624;-71
2023/01/30 12:30:40;;;;;;;15.40;3.97;;;10.10;99.90;;;;;;5053197;28;20274;-71
2023/01/30 12:33:14;;;;;;;13.00;3.67;;;10.00;99.90;;;;;;5053508;28;20173;-70
2023/01/30 12:35:44;;;;;;;11.80;3.97;;;10.20;99.90;;;;;;5036219;28;20574;-70
2023/01/30 12:38:44;;;;;;;12.87;3.63;;;10.20;99.90;;;;;;5053761;28;20741;-70
2023/01/30 12:41:37;;;;;;;16.20;4.00;;;10.20;99.90;;;;;;5053959;28;20158;-71
2023/01/30 12:44:36;;;;;;;15.07;4.17;;;10.30;99.90;;;;;;5053910;28;20173;-71
2023/01/30 12:47:49;;;;;;;21.47;3.77;;;10.40;99.90;;;;;;5053279;28;20180;-70
2023/01/30 12:50:34;;;;;;;18.23;3.60;;;10.20;99.90;;;;;;4991689;28;20188;-71
2023/01/30 12:53:30;;;;;;;13.30;3.87;;;10.20;99.90;;;;;;5053013;28;20232;-70
2023/01/30 12:56:20;;;;;;;16.53;3.60;;;10.10;99.90;;;;;;5069180;28;20180;-71
2023/01/30 12:59:00;;;;;;;12.77;3.47;;;10.00;99.90;;;;;;5062254;28;20204;-71
2023/01/30 13:01:46;;;;;;;15.53;3.63;;;10.00;99.90;;;;;;5058270;28;20169;-71
2023/01/30 13:04:23;;;;;;;23.53;6.57;;;10.00;99.90;;;;;;5052897;28;20169;-71
2023/01/30 13:07:33;;;;;;;9.93;3.20;;;9.90;99.90;;;;;;5062321;28;20168;-70
2023/01/30 13:10:15;;;;;;;12.30;3.03;;;9.90;99.90;;;;;;5054970;28;20220;-71